sensor_id;sensor_type;location;lat;lon;timestamp;P1;durP1;ratioP1;P2;durP2;ratioP2
4051;SDS011;2040;50.924;11.604;2024-01-15T00:01:13;6.93;;;4.27;;
4051;SDS011;2040;50.924;11.604;2024-01-15T00:03:39;6.20;;;3.57;;
4051;SDS011;2040;50.924;11.604;2024-01-15T00:06:04;5.33;;;3.50;;
4051;SDS011;2040;50.924;11.604;2024-01-15T00:08:30;8.20;;;3.40;;
4051;SDS011;2040;50.924;11.604;2024-01-15T00:10:56;11.57;;;4.10;;
4051;SDS011;2040;50.924;11.604;2024-01-15T00:13:21;8.80;;;4.70;;
4051;SDS011;2040;50.924;11.604;2024-01-15T00:15:47;6.23;;;3.47;;
4051;SDS011;2040;50.924;11.604;2024-01-15T00:18:12;6.00;;;2.93;;
4051;SDS011;2040;50.924;11.604;2024-01-15T00:20:38;10.30;;;4.20;;
4051;SDS011;2040;50.924;11.604;2024-01-15T00:23:03;7.80;;;4.03;;
4051;SDS011;2040;50.924;11.604;2024-01-15T00:25:29;9.17;;;4.33;;
4051;SDS011;2040;50.924;11.604;2024-01-15T00:27:54;7.20;;;3.37;;
4051;SDS011;2040;50.924;11.604;2024-01-15T00:30:20;9.57;;;4.00;;
4051;SDS011;2040;50.924;11.604;2024-01-15T00:32:45;8.57;;;3.87;;
4051;SDS011;2040;50.924;11.604;2024-01-15T00:35:11;8.77;;;3.87;;
4051;SDS011;2040;50.924;11.604;2024-01-15T00:37:37;10.00;;;4.33;;
4051;SDS011;2040;50.924;11.604;2024-01-15T00:40:03;10.63;;;4.63;;
4051;SDS011;2040;50.924;11.604;2024-01-15T00:42:29;7.60;;;3.67;;
4051;SDS011;2040;50.924;11.604;2024-01-15T00:44:54;7.27;;;4.47;;
4051;SDS011;2040;50.924;11.604;2024-01-15T00:47:20;8.37;;;3.50;;
4051;SDS011;2040;50.924;11.604;2024-01-15T00:49:45;8.80;;;4.33;;
4051;SDS011;2040;50.924;11.604;2024-01-15T00:52:11;5.23;;;3.70;;
4051;SDS011;2040;50.924;11.604;2024-01-15T00:54:37;9.07;;;4.30;;
4051;SDS011;2040;50.924;11.604;2024-01-15T00:57:03;7.93;;;4.53;;
4051;SDS011;2040;50.924;11.604;2024-01-15T00:59:28;9.67;;;4.80;;
4051;SDS011;2040;50.924;11.604;2024-01-15T01:01:54;9.63;;;5.43;;
4051;SDS011;2040;50.924;11.604;2024-01-15T01:04:19;12.37;;;4.90;;
4051;SDS011;2040;50.924;11.604;2024-01-15T01:06:45;9.13;;;4.57;;
4051;SDS011;2040;50.924;11.604;2024-01-15T01:09:10;7.27;;;4.17;;
4051;SDS011;2040;50.924;11.604;2024-01-15T01:11:36;9.63;;;5.67;;
4051;SDS011;2040;50.924;11.604;2024-01-15T01:14:01;7.13;;;3.17;;
4051;SDS011;2040;50.924;11.604;2024-01-15T01:16:28;12.53;;;4.97;;
4051;SDS011;2040;50.924;11.604;2024-01-15T01:18:53;11.90;;;5.07;;
4051;SDS011;2040;50.924;11.604;2024-01-15T01:21:19;9.30;;;4.30;;
4051;SDS011;2040;50.924;11.604;2024-01-15T01:23:44;12.80;;;5.27;;
4051;SDS011;2040;50.924;11.604;2024-01-15T01:26:10;13.93;;;4.57;;
4051;SDS011;2040;50.924;11.604;2024-01-15T01:28:35;11.93;;;5.23;;
4051;SDS011;2040;50.924;11.604;2024-01-15T01:31:01;6.37;;;4.33;;
4051;SDS011;2040;50.924;11.604;2024-01-15T01:33:26;9.07;;;5.10;;
4051;SDS011;2040;50.924;11.604;2024-01-15T01:35:52;7.90;;;4.53;;
4051;SDS011;2040;50.924;11.604;2024-01-15T01:38:18;9.53;;;4.27;;
4051;SDS011;2040;50.924;11.604;2024-01-15T01:40:44;10.47;;;5.20;;
4051;SDS011;2040;50.924;11.604;2024-01-15T01:43:09;7.20;;;4.90;;
4051;SDS011;2040;50.924;11.604;2024-01-15T01:45:35;11.27;;;5.00;;
4051;SDS011;2040;50.924;11.604;2024-01-15T01:48:01;13.43;;;5.00;;
4051;SDS011;2040;50.924;11.604;2024-01-15T01:50:27;7.70;;;4.57;;
4051;SDS011;2040;50.924;11.604;2024-01-15T01:52:54;7.70;;;4.80;;
4051;SDS011;2040;50.924;11.604;2024-01-15T01:55:20;5.13;;;3.63;;
4051;SDS011;2040;50.924;11.604;2024-01-15T01:57:49;11.93;;;5.13;;
4051;SDS011;2040;50.924;11.604;2024-01-15T02:00:16;9.47;;;5.10;;
4051;SDS011;2040;50.924;11.604;2024-01-15T02:02:42;7.43;;;3.80;;
4051;SDS011;2040;50.924;11.604;2024-01-15T02:05:07;6.60;;;4.20;;
4051;SDS011;2040;50.924;11.604;2024-01-15T02:07:34;7.87;;;4.40;;
4051;SDS011;2040;50.924;11.604;2024-01-15T02:10:00;10.43;;;4.00;;
4051;SDS011;2040;50.924;11.604;2024-01-15T02:12:26;10.50;;;4.90;;
4051;SDS011;2040;50.924;11.604;2024-01-15T02:14:51;12.63;;;4.10;;
4051;SDS011;2040;50.924;11.604;2024-01-15T02:17:17;9.83;;;4.73;;
4051;SDS011;2040;50.924;11.604;2024-01-15T02:19:43;10.67;;;4.17;;
4051;SDS011;2040;50.924;11.604;2024-01-15T02:22:08;8.10;;;3.30;;
4051;SDS011;2040;50.924;11.604;2024-01-15T02:24:34;7.37;;;4.73;;
4051;SDS011;2040;50.924;11.604;2024-01-15T02:26:59;7.93;;;3.67;;
4051;SDS011;2040;50.924;11.604;2024-01-15T02:29:25;7.20;;;4.00;;
4051;SDS011;2040;50.924;11.604;2024-01-15T02:31:51;9.60;;;5.90;;
4051;SDS011;2040;50.924;11.604;2024-01-15T02:34:16;10.30;;;4.10;;
4051;SDS011;2040;50.924;11.604;2024-01-15T02:36:42;4.17;;;2.70;;
4051;SDS011;2040;50.924;11.604;2024-01-15T02:39:07;8.33;;;3.60;;
4051;SDS011;2040;50.924;11.604;2024-01-15T02:41:33;8.40;;;3.53;;
4051;SDS011;2040;50.924;11.604;2024-01-15T02:43:59;9.07;;;3.90;;
4051;SDS011;2040;50.924;11.604;2024-01-15T02:46:24;6.90;;;3.40;;
4051;SDS011;2040;50.924;11.604;2024-01-15T02:48:50;5.83;;;3.10;;
4051;SDS011;2040;50.924;11.604;2024-01-15T02:51:15;7.77;;;4.40;;
4051;SDS011;2040;50.924;11.604;2024-01-15T02:53:41;9.47;;;4.60;;
4051;SDS011;2040;50.924;11.604;2024-01-15T02:56:07;8.20;;;4.10;;
4051;SDS011;2040;50.924;11.604;2024-01-15T02:58:32;4.33;;;3.40;;
4051;SDS011;2040;50.924;11.604;2024-01-15T03:00:58;4.03;;;2.67;;
4051;SDS011;2040;50.924;11.604;2024-01-15T03:03:23;6.63;;;3.20;;
4051;SDS011;2040;50.924;11.604;2024-01-15T03:05:49;9.57;;;3.47;;
4051;SDS011;2040;50.924;11.604;2024-01-15T03:08:14;7.90;;;2.77;;
4051;SDS011;2040;50.924;11.604;2024-01-15T03:10:40;6.80;;;4.00;;
4051;SDS011;2040;50.924;11.604;2024-01-15T03:13:05;4.33;;;2.60;;
4051;SDS011;2040;50.924;11.604;2024-01-15T03:15:31;7.33;;;3.77;;
4051;SDS011;2040;50.924;11.604;2024-01-15T03:17:57;7.77;;;2.50;;
4051;SDS011;2040;50.924;11.604;2024-01-15T03:20:22;7.37;;;3.30;;
4051;SDS011;2040;50.924;11.604;2024-01-15T03:22:48;5.13;;;3.50;;
4051;SDS011;2040;50.924;11.604;2024-01-15T03:25:14;4.83;;;2.50;;
4051;SDS011;2040;50.924;11.604;2024-01-15T03:27:39;3.47;;;2.27;;
4051;SDS011;2040;50.924;11.604;2024-01-15T03:30:05;4.80;;;3.03;;
4051;SDS011;2040;50.924;11.604;2024-01-15T03:32:31;4.40;;;2.83;;
4051;SDS011;2040;50.924;11.604;2024-01-15T03:34:56;2.70;;;2.47;;
4051;SDS011;2040;50.924;11.604;2024-01-15T03:37:22;4.60;;;2.80;;
4051;SDS011;2040;50.924;11.604;2024-01-15T03:39:47;3.27;;;2.10;;
4051;SDS011;2040;50.924;11.604;2024-01-15T03:42:13;4.37;;;2.40;;
4051;SDS011;2040;50.924;11.604;2024-01-15T03:44:39;5.03;;;2.77;;
4051;SDS011;2040;50.924;11.604;2024-01-15T03:47:05;5.50;;;3.00;;
4051;SDS011;2040;50.924;11.604;2024-01-15T03:49:30;3.90;;;2.53;;
4051;SDS011;2040;50.924;11.604;2024-01-15T03:51:56;7.47;;;2.40;;
4051;SDS011;2040;50.924;11.604;2024-01-15T03:54:21;3.73;;;2.23;;
4051;SDS011;2040;50.924;11.604;2024-01-15T03:56:47;3.23;;;1.83;;
4051;SDS011;2040;50.924;11.604;2024-01-15T03:59:12;6.30;;;2.70;;
4051;SDS011;2040;50.924;11.604;2024-01-15T04:01:38;5.40;;;2.50;;
4051;SDS011;2040;50.924;11.604;2024-01-15T04:04:03;7.33;;;2.80;;
4051;SDS011;2040;50.924;11.604;2024-01-15T04:06:29;4.57;;;2.63;;
4051;SDS011;2040;50.924;11.604;2024-01-15T04:08:54;4.77;;;2.63;;
4051;SDS011;2040;50.924;11.604;2024-01-15T04:11:20;6.30;;;2.80;;
4051;SDS011;2040;50.924;11.604;2024-01-15T04:13:47;3.47;;;2.27;;
4051;SDS011;2040;50.924;11.604;2024-01-15T04:16:13;3.80;;;2.83;;
4051;SDS011;2040;50.924;11.604;2024-01-15T04:18:38;6.60;;;3.30;;
4051;SDS011;2040;50.924;11.604;2024-01-15T04:21:05;5.80;;;2.53;;
4051;SDS011;2040;50.924;11.604;2024-01-15T04:23:31;4.07;;;3.07;;
4051;SDS011;2040;50.924;11.604;2024-01-15T04:25:58;5.50;;;2.30;;
4051;SDS011;2040;50.924;11.604;2024-01-15T04:28:23;9.50;;;3.27;;
4051;SDS011;2040;50.924;11.604;2024-01-15T04:30:49;3.27;;;2.80;;
4051;SDS011;2040;50.924;11.604;2024-01-15T04:33:14;2.80;;;2.23;;
4051;SDS011;2040;50.924;11.604;2024-01-15T04:35:40;6.67;;;2.77;;
4051;SDS011;2040;50.924;11.604;2024-01-15T04:38:06;4.40;;;3.03;;
4051;SDS011;2040;50.924;11.604;2024-01-15T04:40:31;3.80;;;2.07;;
4051;SDS011;2040;50.924;11.604;2024-01-15T04:42:57;5.53;;;3.13;;
4051;SDS011;2040;50.924;11.604;2024-01-15T04:45:22;5.40;;;1.97;;
4051;SDS011;2040;50.924;11.604;2024-01-15T04:47:55;2.53;;;2.00;;
4051;SDS011;2040;50.924;11.604;2024-01-15T04:50:22;6.87;;;3.07;;
4051;SDS011;2040;50.924;11.604;2024-01-15T04:52:47;4.10;;;2.37;;
4051;SDS011;2040;50.924;11.604;2024-01-15T04:55:13;6.90;;;1.90;;
4051;SDS011;2040;50.924;11.604;2024-01-15T04:57:38;8.23;;;2.67;;
4051;SDS011;2040;50.924;11.604;2024-01-15T05:00:04;1.80;;;1.70;;
4051;SDS011;2040;50.924;11.604;2024-01-15T05:02:30;3.27;;;2.10;;
4051;SDS011;2040;50.924;11.604;2024-01-15T05:04:55;3.30;;;1.97;;
4051;SDS011;2040;50.924;11.604;2024-01-15T05:07:21;6.23;;;2.87;;
4051;SDS011;2040;50.924;11.604;2024-01-15T05:09:47;3.43;;;2.70;;
4051;SDS011;2040;50.924;11.604;2024-01-15T05:12:12;4.10;;;2.83;;
4051;SDS011;2040;50.924;11.604;2024-01-15T05:14:38;3.60;;;2.57;;
4051;SDS011;2040;50.924;11.604;2024-01-15T05:17:04;3.33;;;2.07;;
4051;SDS011;2040;50.924;11.604;2024-01-15T05:19:29;5.20;;;2.27;;
4051;SDS011;2040;50.924;11.604;2024-01-15T05:21:55;3.13;;;2.30;;
4051;SDS011;2040;50.924;11.604;2024-01-15T05:24:20;2.90;;;2.10;;
4051;SDS011;2040;50.924;11.604;2024-01-15T05:26:46;2.47;;;2.10;;
4051;SDS011;2040;50.924;11.604;2024-01-15T05:29:11;4.87;;;2.00;;
4051;SDS011;2040;50.924;11.604;2024-01-15T05:31:37;4.67;;;2.77;;
4051;SDS011;2040;50.924;11.604;2024-01-15T05:34:03;2.73;;;2.20;;
4051;SDS011;2040;50.924;11.604;2024-01-15T05:36:28;7.03;;;2.37;;
4051;SDS011;2040;50.924;11.604;2024-01-15T05:38:54;4.43;;;2.47;;
4051;SDS011;2040;50.924;11.604;2024-01-15T05:41:19;5.67;;;2.43;;
4051;SDS011;2040;50.924;11.604;2024-01-15T05:43:45;6.20;;;2.60;;
4051;SDS011;2040;50.924;11.604;2024-01-15T05:46:11;2.93;;;1.90;;
4051;SDS011;2040;50.924;11.604;2024-01-15T05:48:36;2.80;;;2.20;;
4051;SDS011;2040;50.924;11.604;2024-01-15T05:51:02;2.83;;;2.53;;
4051;SDS011;2040;50.924;11.604;2024-01-15T05:53:27;2.93;;;2.00;;
4051;SDS011;2040;50.924;11.604;2024-01-15T05:55:53;8.10;;;2.97;;
4051;SDS011;2040;50.924;11.604;2024-01-15T05:58:20;8.30;;;2.53;;
4051;SDS011;2040;50.924;11.604;2024-01-15T06:00:46;5.57;;;2.87;;
4051;SDS011;2040;50.924;11.604;2024-01-15T06:03:12;9.63;;;3.03;;
4051;SDS011;2040;50.924;11.604;2024-01-15T06:05:38;3.40;;;2.40;;
4051;SDS011;2040;50.924;11.604;2024-01-15T06:08:04;5.00;;;2.67;;
4051;SDS011;2040;50.924;11.604;2024-01-15T06:10:30;4.00;;;2.07;;
4051;SDS011;2040;50.924;11.604;2024-01-15T06:12:55;4.77;;;2.20;;
4051;SDS011;2040;50.924;11.604;2024-01-15T06:15:21;3.23;;;2.17;;
4051;SDS011;2040;50.924;11.604;2024-01-15T06:17:47;2.40;;;2.13;;
4051;SDS011;2040;50.924;11.604;2024-01-15T06:20:12;2.90;;;2.33;;
4051;SDS011;2040;50.924;11.604;2024-01-15T06:22:38;2.33;;;1.70;;
4051;SDS011;2040;50.924;11.604;2024-01-15T06:25:05;3.83;;;2.00;;
4051;SDS011;2040;50.924;11.604;2024-01-15T06:27:32;5.10;;;2.37;;
4051;SDS011;2040;50.924;11.604;2024-01-15T06:29:57;2.27;;;2.13;;
4051;SDS011;2040;50.924;11.604;2024-01-15T06:32:23;3.03;;;2.43;;
4051;SDS011;2040;50.924;11.604;2024-01-15T06:34:48;3.00;;;2.03;;
4051;SDS011;2040;50.924;11.604;2024-01-15T06:37:14;3.17;;;2.10;;
4051;SDS011;2040;50.924;11.604;2024-01-15T06:39:39;2.83;;;2.00;;
4051;SDS011;2040;50.924;11.604;2024-01-15T06:42:05;3.90;;;2.00;;
4051;SDS011;2040;50.924;11.604;2024-01-15T06:44:31;6.13;;;2.90;;
4051;SDS011;2040;50.924;11.604;2024-01-15T06:46:57;8.33;;;2.87;;
4051;SDS011;2040;50.924;11.604;2024-01-15T06:49:27;3.23;;;2.00;;
4051;SDS011;2040;50.924;11.604;2024-01-15T06:51:53;3.20;;;1.90;;
4051;SDS011;2040;50.924;11.604;2024-01-15T06:54:19;4.10;;;2.33;;
4051;SDS011;2040;50.924;11.604;2024-01-15T06:56:44;3.37;;;2.30;;
4051;SDS011;2040;50.924;11.604;2024-01-15T06:59:10;3.37;;;2.13;;
4051;SDS011;2040;50.924;11.604;2024-01-15T07:01:35;2.83;;;2.00;;
4051;SDS011;2040;50.924;11.604;2024-01-15T07:04:01;3.90;;;2.83;;
4051;SDS011;2040;50.924;11.604;2024-01-15T07:06:26;3.83;;;1.83;;
4051;SDS011;2040;50.924;11.604;2024-01-15T07:08:52;2.93;;;1.53;;
4051;SDS011;2040;50.924;11.604;2024-01-15T07:11:17;9.50;;;2.10;;
4051;SDS011;2040;50.924;11.604;2024-01-15T07:13:43;3.33;;;1.77;;
4051;SDS011;2040;50.924;11.604;2024-01-15T07:16:08;4.70;;;1.90;;
4051;SDS011;2040;50.924;11.604;2024-01-15T07:18:34;5.63;;;2.00;;
4051;SDS011;2040;50.924;11.604;2024-01-15T07:21:00;3.47;;;2.10;;
4051;SDS011;2040;50.924;11.604;2024-01-15T07:23:26;2.93;;;2.00;;
4051;SDS011;2040;50.924;11.604;2024-01-15T07:25:52;3.63;;;2.07;;
4051;SDS011;2040;50.924;11.604;2024-01-15T07:28:19;2.10;;;2.00;;
4051;SDS011;2040;50.924;11.604;2024-01-15T07:30:44;3.10;;;2.17;;
4051;SDS011;2040;50.924;11.604;2024-01-15T07:33:10;4.07;;;2.07;;
4051;SDS011;2040;50.924;11.604;2024-01-15T07:35:36;2.80;;;1.90;;
4051;SDS011;2040;50.924;11.604;2024-01-15T07:38:01;3.70;;;1.83;;
4051;SDS011;2040;50.924;11.604;2024-01-15T07:40:27;5.80;;;2.70;;
4051;SDS011;2040;50.924;11.604;2024-01-15T07:42:53;2.53;;;1.93;;
4051;SDS011;2040;50.924;11.604;2024-01-15T07:45:18;3.13;;;1.80;;
4051;SDS011;2040;50.924;11.604;2024-01-15T07:47:44;2.70;;;1.40;;
4051;SDS011;2040;50.924;11.604;2024-01-15T07:50:09;2.13;;;1.93;;
4051;SDS011;2040;50.924;11.604;2024-01-15T07:52:35;4.30;;;2.20;;
4051;SDS011;2040;50.924;11.604;2024-01-15T07:55:04;3.10;;;2.23;;
4051;SDS011;2040;50.924;11.604;2024-01-15T07:57:30;3.50;;;2.37;;
4051;SDS011;2040;50.924;11.604;2024-01-15T07:59:56;2.33;;;1.70;;
4051;SDS011;2040;50.924;11.604;2024-01-15T08:02:21;4.37;;;1.83;;
4051;SDS011;2040;50.924;11.604;2024-01-15T08:04:47;2.03;;;1.93;;
4051;SDS011;2040;50.924;11.604;2024-01-15T08:07:13;4.33;;;1.80;;
4051;SDS011;2040;50.924;11.604;2024-01-15T08:09:38;3.60;;;1.80;;
4051;SDS011;2040;50.924;11.604;2024-01-15T08:12:04;3.40;;;2.07;;
4051;SDS011;2040;50.924;11.604;2024-01-15T08:14:31;4.50;;;1.83;;
4051;SDS011;2040;50.924;11.604;2024-01-15T08:16:56;4.27;;;1.90;;
4051;SDS011;2040;50.924;11.604;2024-01-15T08:19:22;4.30;;;2.57;;
4051;SDS011;2040;50.924;11.604;2024-01-15T08:21:47;2.73;;;2.03;;
4051;SDS011;2040;50.924;11.604;2024-01-15T08:24:14;4.20;;;2.20;;
4051;SDS011;2040;50.924;11.604;2024-01-15T08:26:40;3.40;;;2.23;;
4051;SDS011;2040;50.924;11.604;2024-01-15T08:29:06;3.30;;;1.63;;
4051;SDS011;2040;50.924;11.604;2024-01-15T08:31:31;3.87;;;2.43;;
4051;SDS011;2040;50.924;11.604;2024-01-15T08:33:57;3.50;;;1.83;;
4051;SDS011;2040;50.924;11.604;2024-01-15T08:36:24;3.27;;;2.10;;
4051;SDS011;2040;50.924;11.604;2024-01-15T08:38:49;2.53;;;1.40;;
4051;SDS011;2040;50.924;11.604;2024-01-15T08:41:15;6.70;;;2.50;;
4051;SDS011;2040;50.924;11.604;2024-01-15T08:43:41;2.53;;;2.20;;
4051;SDS011;2040;50.924;11.604;2024-01-15T08:46:06;11.10;;;2.07;;
4051;SDS011;2040;50.924;11.604;2024-01-15T08:48:32;2.07;;;1.50;;
4051;SDS011;2040;50.924;11.604;2024-01-15T08:50:57;3.97;;;2.77;;
4051;SDS011;2040;50.924;11.604;2024-01-15T08:53:23;2.73;;;2.20;;
4051;SDS011;2040;50.924;11.604;2024-01-15T08:55:49;4.53;;;1.67;;
4051;SDS011;2040;50.924;11.604;2024-01-15T08:58:14;3.20;;;1.87;;
4051;SDS011;2040;50.924;11.604;2024-01-15T09:00:40;4.33;;;2.77;;
4051;SDS011;2040;50.924;11.604;2024-01-15T09:03:06;3.77;;;2.00;;
4051;SDS011;2040;50.924;11.604;2024-01-15T09:05:33;3.77;;;2.60;;
4051;SDS011;2040;50.924;11.604;2024-01-15T09:07:59;4.30;;;2.60;;
4051;SDS011;2040;50.924;11.604;2024-01-15T09:10:24;3.27;;;2.10;;
4051;SDS011;2040;50.924;11.604;2024-01-15T09:12:50;2.60;;;2.20;;
4051;SDS011;2040;50.924;11.604;2024-01-15T09:15:16;2.90;;;1.57;;
4051;SDS011;2040;50.924;11.604;2024-01-15T09:17:41;4.00;;;1.97;;
4051;SDS011;2040;50.924;11.604;2024-01-15T09:20:08;7.37;;;2.40;;
4051;SDS011;2040;50.924;11.604;2024-01-15T09:22:35;7.50;;;1.57;;
4051;SDS011;2040;50.924;11.604;2024-01-15T09:25:02;5.20;;;2.07;;
4051;SDS011;2040;50.924;11.604;2024-01-15T09:27:29;2.07;;;1.87;;
4051;SDS011;2040;50.924;11.604;2024-01-15T09:29:54;5.60;;;2.50;;
4051;SDS011;2040;50.924;11.604;2024-01-15T09:32:20;4.77;;;1.70;;
4051;SDS011;2040;50.924;11.604;2024-01-15T09:34:45;7.90;;;2.17;;
4051;SDS011;2040;50.924;11.604;2024-01-15T09:37:11;2.53;;;1.50;;
4051;SDS011;2040;50.924;11.604;2024-01-15T09:39:39;2.53;;;2.30;;
4051;SDS011;2040;50.924;11.604;2024-01-15T09:42:04;2.27;;;2.07;;
4051;SDS011;2040;50.924;11.604;2024-01-15T09:44:30;7.80;;;2.07;;
4051;SDS011;2040;50.924;11.604;2024-01-15T09:46:56;6.23;;;2.20;;
4051;SDS011;2040;50.924;11.604;2024-01-15T09:49:22;4.67;;;1.97;;
4051;SDS011;2040;50.924;11.604;2024-01-15T09:51:48;5.20;;;2.10;;
4051;SDS011;2040;50.924;11.604;2024-01-15T09:54:17;3.80;;;2.57;;
4051;SDS011;2040;50.924;11.604;2024-01-15T09:56:46;4.57;;;2.30;;
4051;SDS011;2040;50.924;11.604;2024-01-15T09:59:15;5.10;;;2.30;;
4051;SDS011;2040;50.924;11.604;2024-01-15T10:01:43;2.67;;;2.33;;
4051;SDS011;2040;50.924;11.604;2024-01-15T10:04:10;4.87;;;2.40;;
4051;SDS011;2040;50.924;11.604;2024-01-15T10:06:37;4.73;;;2.33;;
4051;SDS011;2040;50.924;11.604;2024-01-15T10:09:04;6.80;;;2.70;;
4051;SDS011;2040;50.924;11.604;2024-01-15T10:11:30;4.63;;;3.00;;
4051;SDS011;2040;50.924;11.604;2024-01-15T10:13:57;4.40;;;2.97;;
4051;SDS011;2040;50.924;11.604;2024-01-15T10:16:23;2.77;;;2.20;;
4051;SDS011;2040;50.924;11.604;2024-01-15T10:18:49;4.17;;;2.23;;
4051;SDS011;2040;50.924;11.604;2024-01-15T10:21:14;6.03;;;2.40;;
4051;SDS011;2040;50.924;11.604;2024-01-15T10:23:41;3.47;;;2.00;;
4051;SDS011;2040;50.924;11.604;2024-01-15T10:26:06;6.73;;;2.57;;
4051;SDS011;2040;50.924;11.604;2024-01-15T10:28:32;6.43;;;2.40;;
4051;SDS011;2040;50.924;11.604;2024-01-15T10:30:58;3.63;;;2.50;;
4051;SDS011;2040;50.924;11.604;2024-01-15T10:33:25;4.73;;;2.23;;
4051;SDS011;2040;50.924;11.604;2024-01-15T10:35:55;2.23;;;1.97;;
4051;SDS011;2040;50.924;11.604;2024-01-15T10:38:21;2.50;;;2.00;;
4051;SDS011;2040;50.924;11.604;2024-01-15T10:40:48;4.30;;;3.10;;
4051;SDS011;2040;50.924;11.604;2024-01-15T10:43:19;3.20;;;2.37;;
4051;SDS011;2040;50.924;11.604;2024-01-15T10:45:45;2.70;;;2.23;;
4051;SDS011;2040;50.924;11.604;2024-01-15T10:48:13;3.93;;;2.30;;
4051;SDS011;2040;50.924;11.604;2024-01-15T10:50:39;5.40;;;2.17;;
4051;SDS011;2040;50.924;11.604;2024-01-15T10:53:05;5.20;;;2.57;;
4051;SDS011;2040;50.924;11.604;2024-01-15T10:55:33;3.43;;;2.00;;
4051;SDS011;2040;50.924;11.604;2024-01-15T10:58:00;3.57;;;2.27;;
4051;SDS011;2040;50.924;11.604;2024-01-15T11:00:28;6.80;;;2.67;;
4051;SDS011;2040;50.924;11.604;2024-01-15T11:02:54;3.27;;;2.00;;
4051;SDS011;2040;50.924;11.604;2024-01-15T11:05:20;2.13;;;1.93;;
4051;SDS011;2040;50.924;11.604;2024-01-15T11:07:48;3.33;;;2.10;;
4051;SDS011;2040;50.924;11.604;2024-01-15T11:13:53;2.40;;;1.70;;
4051;SDS011;2040;50.924;11.604;2024-01-15T11:15:57;2.07;;;1.73;;
4051;SDS011;2040;50.924;11.604;2024-01-15T11:18:27;3.23;;;2.10;;
4051;SDS011;2040;50.924;11.604;2024-01-15T11:23:44;7.33;;;2.07;;
4051;SDS011;2040;50.924;11.604;2024-01-15T11:26:33;4.07;;;2.20;;
4051;SDS011;2040;50.924;11.604;2024-01-15T11:34:20;4.23;;;2.13;;
4051;SDS011;2040;50.924;11.604;2024-01-15T11:41:58;8.37;;;1.60;;
4051;SDS011;2040;50.924;11.604;2024-01-15T11:44:30;2.10;;;1.50;;
4051;SDS011;2040;50.924;11.604;2024-01-15T11:49:41;1.70;;;1.60;;
4051;SDS011;2040;50.924;11.604;2024-01-15T11:52:11;4.63;;;1.97;;
4051;SDS011;2040;50.924;11.604;2024-01-15T11:54:39;3.00;;;1.37;;
4051;SDS011;2040;50.924;11.604;2024-01-15T11:57:09;2.53;;;2.00;;
4051;SDS011;2040;50.924;11.604;2024-01-15T11:59:41;2.80;;;1.30;;
4051;SDS011;2040;50.924;11.604;2024-01-15T12:02:07;2.63;;;1.83;;
4051;SDS011;2040;50.924;11.604;2024-01-15T12:04:32;4.87;;;1.20;;
4051;SDS011;2040;50.924;11.604;2024-01-15T12:06:58;1.47;;;1.33;;
4051;SDS011;2040;50.924;11.604;2024-01-15T12:09:23;4.57;;;1.80;;
4051;SDS011;2040;50.924;11.604;2024-01-15T12:11:51;2.63;;;1.73;;
4051;SDS011;2040;50.924;11.604;2024-01-15T12:14:24;4.10;;;1.83;;
4051;SDS011;2040;50.924;11.604;2024-01-15T12:16:49;2.10;;;1.30;;
4051;SDS011;2040;50.924;11.604;2024-01-15T12:19:15;33.70;;;1.77;;
4051;SDS011;2040;50.924;11.604;2024-01-15T12:21:41;2.53;;;1.37;;
4051;SDS011;2040;50.924;11.604;2024-01-15T12:24:07;1.67;;;1.47;;
4051;SDS011;2040;50.924;11.604;2024-01-15T12:26:33;2.33;;;1.40;;
4051;SDS011;2040;50.924;11.604;2024-01-15T12:29:01;3.43;;;1.67;;
4051;SDS011;2040;50.924;11.604;2024-01-15T12:31:27;2.70;;;1.83;;
4051;SDS011;2040;50.924;11.604;2024-01-15T12:33:55;2.03;;;1.67;;
4051;SDS011;2040;50.924;11.604;2024-01-15T12:36:21;4.00;;;1.60;;
4051;SDS011;2040;50.924;11.604;2024-01-15T12:38:46;1.57;;;1.20;;
4051;SDS011;2040;50.924;11.604;2024-01-15T12:41:12;5.60;;;2.10;;
4051;SDS011;2040;50.924;11.604;2024-01-15T12:43:38;3.20;;;1.50;;
4051;SDS011;2040;50.924;11.604;2024-01-15T12:46:05;2.27;;;1.43;;
4051;SDS011;2040;50.924;11.604;2024-01-15T12:48:31;1.60;;;1.07;;
4051;SDS011;2040;50.924;11.604;2024-01-15T12:50:56;2.77;;;1.40;;
4051;SDS011;2040;50.924;11.604;2024-01-15T12:53:22;1.37;;;1.27;;
4051;SDS011;2040;50.924;11.604;2024-01-15T12:55:47;2.17;;;1.60;;
4051;SDS011;2040;50.924;11.604;2024-01-15T12:58:13;2.27;;;1.53;;
4051;SDS011;2040;50.924;11.604;2024-01-15T13:00:39;3.00;;;1.73;;
4051;SDS011;2040;50.924;11.604;2024-01-15T13:03:04;2.13;;;1.47;;
4051;SDS011;2040;50.924;11.604;2024-01-15T13:05:31;3.17;;;1.57;;
4051;SDS011;2040;50.924;11.604;2024-01-15T13:07:58;1.93;;;1.20;;
4051;SDS011;2040;50.924;11.604;2024-01-15T13:10:24;3.13;;;2.07;;
4051;SDS011;2040;50.924;11.604;2024-01-15T13:12:50;5.33;;;1.93;;
4051;SDS011;2040;50.924;11.604;2024-01-15T13:15:16;2.20;;;1.90;;
4051;SDS011;2040;50.924;11.604;2024-01-15T13:17:42;4.97;;;1.80;;
4051;SDS011;2040;50.924;11.604;2024-01-15T13:20:07;3.17;;;1.43;;
4051;SDS011;2040;50.924;11.604;2024-01-15T13:22:33;2.67;;;1.67;;
4051;SDS011;2040;50.924;11.604;2024-01-15T13:24:59;5.33;;;2.73;;
4051;SDS011;2040;50.924;11.604;2024-01-15T13:27:25;2.33;;;1.97;;
4051;SDS011;2040;50.924;11.604;2024-01-15T13:29:50;3.17;;;1.63;;
4051;SDS011;2040;50.924;11.604;2024-01-15T13:32:17;4.83;;;2.07;;
4051;SDS011;2040;50.924;11.604;2024-01-15T13:34:53;2.10;;;1.70;;
4051;SDS011;2040;50.924;11.604;2024-01-15T13:37:20;3.47;;;1.80;;
4051;SDS011;2040;50.924;11.604;2024-01-15T13:39:46;3.20;;;1.57;;
4051;SDS011;2040;50.924;11.604;2024-01-15T13:42:11;3.43;;;2.10;;
4051;SDS011;2040;50.924;11.604;2024-01-15T13:44:37;3.40;;;1.87;;
4051;SDS011;2040;50.924;11.604;2024-01-15T13:47:03;1.47;;;1.37;;
4051;SDS011;2040;50.924;11.604;2024-01-15T13:49:30;3.07;;;1.93;;
4051;SDS011;2040;50.924;11.604;2024-01-15T13:51:55;3.33;;;2.23;;
4051;SDS011;2040;50.924;11.604;2024-01-15T13:54:21;3.03;;;2.03;;
4051;SDS011;2040;50.924;11.604;2024-01-15T13:56:46;4.60;;;2.80;;
4051;SDS011;2040;50.924;11.604;2024-01-15T13:59:12;1.57;;;1.27;;
4051;SDS011;2040;50.924;11.604;2024-01-15T14:01:38;3.13;;;1.93;;
4051;SDS011;2040;50.924;11.604;2024-01-15T14:04:04;4.13;;;2.17;;
4051;SDS011;2040;50.924;11.604;2024-01-15T14:06:30;4.27;;;2.20;;
4051;SDS011;2040;50.924;11.604;2024-01-15T14:08:56;3.53;;;2.27;;
4051;SDS011;2040;50.924;11.604;2024-01-15T14:11:21;2.97;;;1.77;;
4051;SDS011;2040;50.924;11.604;2024-01-15T14:13:48;4.37;;;2.37;;
4051;SDS011;2040;50.924;11.604;2024-01-15T14:16:13;4.17;;;1.70;;
4051;SDS011;2040;50.924;11.604;2024-01-15T14:18:39;4.20;;;1.87;;
4051;SDS011;2040;50.924;11.604;2024-01-15T14:21:04;3.10;;;1.60;;
4051;SDS011;2040;50.924;11.604;2024-01-15T14:23:30;2.30;;;1.70;;
4051;SDS011;2040;50.924;11.604;2024-01-15T14:25:56;2.10;;;1.60;;
4051;SDS011;2040;50.924;11.604;2024-01-15T14:28:21;3.90;;;2.13;;
4051;SDS011;2040;50.924;11.604;2024-01-15T14:30:48;3.03;;;2.13;;
4051;SDS011;2040;50.924;11.604;2024-01-15T14:33:14;4.50;;;1.80;;
4051;SDS011;2040;50.924;11.604;2024-01-15T14:35:39;2.97;;;1.80;;
4051;SDS011;2040;50.924;11.604;2024-01-15T14:38:05;3.83;;;1.77;;
4051;SDS011;2040;50.924;11.604;2024-01-15T14:40:30;2.57;;;1.70;;
4051;SDS011;2040;50.924;11.604;2024-01-15T14:42:56;2.87;;;1.83;;
4051;SDS011;2040;50.924;11.604;2024-01-15T14:45:21;3.23;;;1.60;;
4051;SDS011;2040;50.924;11.604;2024-01-15T14:47:48;2.17;;;1.87;;
4051;SDS011;2040;50.924;11.604;2024-01-15T14:50:14;2.93;;;1.67;;
4051;SDS011;2040;50.924;11.604;2024-01-15T14:52:39;3.50;;;2.00;;
4051;SDS011;2040;50.924;11.604;2024-01-15T14:55:07;4.50;;;1.87;;
4051;SDS011;2040;50.924;11.604;2024-01-15T14:57:34;1.93;;;1.13;;
4051;SDS011;2040;50.924;11.604;2024-01-15T14:59:59;5.17;;;2.37;;
4051;SDS011;2040;50.924;11.604;2024-01-15T15:02:25;4.77;;;2.23;;
4051;SDS011;2040;50.924;11.604;2024-01-15T15:04:53;5.40;;;2.23;;
4051;SDS011;2040;50.924;11.604;2024-01-15T15:07:20;5.33;;;1.93;;
4051;SDS011;2040;50.924;11.604;2024-01-15T15:09:47;5.07;;;2.17;;
4051;SDS011;2040;50.924;11.604;2024-01-15T15:12:15;6.30;;;1.83;;